Slingerlands, NY (12159)

9:41 AM EST on February 09, 2016 (GMT -0500)
Slingerlands - Delmar | | Change Station
CLOSE
Current Station
Personal Weather Station
Location: Delmar, NY
Elevation: 256 ft
Nearby Weather Stations

Elev 256 ft 42.62 °N, 73.86 °W | Updated 1 second ago

Overcast
Overcast
25.0 °F
Feels Like 25 °F
N
0.0
Wind Variable Wind from East
Gusts 0.0 mph

Today
High -- | Low -- °F
--% Chance of Precip.
Yesterday
High -- | Low -- °F
Precip. -- in
Pressure 29.70 in
Visibility 1.5 miles
Clouds Few 900 ft
Scattered Clouds 1500 ft
Overcast 3000 ft
Windchill 25 °F
Dew Point 15 °F
Humidity 66%
Rainfall 0.00 in
Snow Depth Not available.
7:01 AM 5:18 PM
New Moon, 1% visible
SPECI KALB 091421Z 16007KT 1 1/2SM -SN FEW009 SCT015 OVC030 M04/M08 A2970 RMK AO2 SFC VIS 2 1/2 VIS 2V3 P0000 T10441078
Pressure 29.70 in
Visibility 1.5 miles
Clouds Few 900 ft
Scattered Clouds 1500 ft
Overcast 3000 ft
Windchill 25 °F
Dew Point 15 °F
Humidity 66%
Rainfall 0.00 in
Snow Depth Not available.
7:01 AM 5:18 PM
New Moon, 1% visible
SPECI KALB 091421Z 16007KT 1 1/2SM -SN FEW009 SCT015 OVC030 M04/M08 A2970 RMK AO2 SFC VIS 2 1/2 VIS 2V3 P0000 T10441078

10-Day Weather Forecast

Almanac

Astronomy

Feb. 09, 2016 Rise Set
Actual Time
Civil Twilight
Nautical Twilight
Astronomical Twilight
Moon
Length of Visible Light
Length of Day
Tomorrow will be .
, % of the Moon is Illuminated

Today's Extremes

State Highs State Lows

Community

WunderPhotos

Upload Photos

1,891,614 photos uploaded!

WunderBlog® & News

Nearby

Air Quality

  Air Quality AQ Index Pollutant
Not available.

Snow Depth

Station Depth Elevation

Earthquake Activity

City Distance Mag. Time & Date
Minimum magnitude displayed is 2.5.

Coastal Water Temperatures

Place Temperature

Stations

Nearby Weather Stations

Station Location Temp. Windchill Dew Point Humidity Wind Precip. Elev Updated Type
                   

Watches & Warnings

There are currently no watches in effect.